createdAt,value
2023-12-24T00:01:08.534Z,11.79
2023-12-24T00:06:11.664Z,11.88
2023-12-24T00:11:14.778Z,11.85
2023-12-24T00:16:18.796Z,11.79
2023-12-24T00:21:21.638Z,11.99
2023-12-24T00:26:25.948Z,11.87
2023-12-24T00:31:29.904Z,11.51
2023-12-24T00:36:33.909Z,12.12
2023-12-24T00:41:39.500Z,12.21
2023-12-24T00:46:45.458Z,12.00
2023-12-24T00:51:48.164Z,11.84
2023-12-24T00:56:50.923Z,11.65
2023-12-24T01:01:54.957Z,11.51
2023-12-24T01:07:04.086Z,11.43
2023-12-24T01:12:08.510Z,11.63
2023-12-24T01:17:19.293Z,12.14
2023-12-24T01:22:22.550Z,10.95
2023-12-24T01:27:25.921Z,12.31
2023-12-24T01:32:30.094Z,12.03
2023-12-24T01:37:34.491Z,10.42
2023-12-24T01:42:37.212Z,12.00
2023-12-24T01:47:43.318Z,11.85
2023-12-24T01:52:46.203Z,11.43
2023-12-24T01:57:51.409Z,11.03
2023-12-24T02:02:56.810Z,11.87
2023-12-24T02:08:00.786Z,11.84
2023-12-24T02:13:03.763Z,11.98
2023-12-24T02:18:09.124Z,11.94
2023-12-24T02:23:13.292Z,11.77
2023-12-24T02:28:24.360Z,11.96
2023-12-24T02:33:31.618Z,11.71
2023-12-24T02:38:35.793Z,11.81
2023-12-24T02:43:38.799Z,11.68
2023-12-24T02:48:41.506Z,11.89
2023-12-24T02:53:46.703Z,11.76
2023-12-24T02:58:52.110Z,11.49
2023-12-24T03:03:54.738Z,11.50
2023-12-24T03:09:00.585Z,11.76
2023-12-24T03:14:03.738Z,11.29
2023-12-24T03:19:06.737Z,11.02
2023-12-24T03:24:11.512Z,11.42
2023-12-24T03:29:14.507Z,10.97
2023-12-24T03:34:17.342Z,11.16
2023-12-24T03:39:21.520Z,11.15
2023-12-24T03:44:24.148Z,11.11
2023-12-24T03:49:26.795Z,11.14
2023-12-24T03:54:30.787Z,11.06
2023-12-24T03:59:33.999Z,11.46
2023-12-24T04:04:36.685Z,11.72
2023-12-24T04:09:42.948Z,11.20
2023-12-24T04:14:45.673Z,11.63
2023-12-24T04:20:09.185Z,11.38
2023-12-24T04:25:34.448Z,11.63
2023-12-24T04:30:57.954Z,11.62
2023-12-24T04:36:23.234Z,11.44
2023-12-24T04:41:52.032Z,11.64
2023-12-24T04:47:15.309Z,11.81
2023-12-24T04:52:39.138Z,11.22
2023-12-24T04:58:05.514Z,11.45
2023-12-24T05:03:28.524Z,11.41
2023-12-24T05:08:51.552Z,11.21
2023-12-24T05:14:15.757Z,11.71
2023-12-24T05:19:18.493Z,11.86
2023-12-24T05:25:04.783Z,10.99
2023-12-24T05:30:19.281Z,11.79
2023-12-24T05:35:22.039Z,11.70
2023-12-24T05:40:25.292Z,11.64
2023-12-24T05:45:29.741Z,11.46
2023-12-24T05:50:32.531Z,11.41
2023-12-24T05:55:35.243Z,11.60
2023-12-24T06:00:39.261Z,11.89
2023-12-24T06:05:42.280Z,11.56
2023-12-24T06:10:46.322Z,11.74
2023-12-24T06:15:50.337Z,11.83
2023-12-24T06:20:53.271Z,11.72
2023-12-24T06:25:56.031Z,11.80
2023-12-24T06:31:05.028Z,12.10
2023-12-24T06:36:10.909Z,11.91
2023-12-24T06:41:13.704Z,11.82
2023-12-24T06:46:18.207Z,11.71
2023-12-24T06:51:21.306Z,11.82
2023-12-24T06:56:24.005Z,12.04
2023-12-24T07:01:27.992Z,11.92
2023-12-24T07:06:30.699Z,11.58
2023-12-24T07:11:33.523Z,12.21
2023-12-24T07:16:40.696Z,12.11
2023-12-24T07:21:43.838Z,11.73
2023-12-24T07:26:47.047Z,12.29
2023-12-24T07:31:51.051Z,12.14
2023-12-24T07:36:54.838Z,12.05
2023-12-24T07:41:57.899Z,11.73
2023-12-24T07:47:02.145Z,11.95
2023-12-24T07:52:05.165Z,11.80
2023-12-24T07:57:07.989Z,11.53
2023-12-24T09:57:43.560Z,12.52
2023-12-24T10:26:47.123Z,12.68
2023-12-24T10:32:25.605Z,11.81
2023-12-24T10:37:30.906Z,12.30
2023-12-24T10:42:33.707Z,12.56
2023-12-24T10:47:39.460Z,12.24
2023-12-24T10:52:43.793Z,12.13
2023-12-24T10:57:57.454Z,12.28
2023-12-24T11:03:01.573Z,12.54
2023-12-24T11:08:04.565Z,12.71
2023-12-24T11:13:12.703Z,12.55
2023-12-24T11:18:47.009Z,11.83
2023-12-24T11:24:22.593Z,12.71
2023-12-24T11:29:49.451Z,12.69
2023-12-24T11:34:54.061Z,11.90
2023-12-24T11:40:01.350Z,12.27
2023-12-24T11:45:04.259Z,12.83
2023-12-24T11:50:13.720Z,12.34
2023-12-24T11:55:16.995Z,12.80
2023-12-24T12:00:26.079Z,12.19
2023-12-24T12:05:31.620Z,12.41
2023-12-24T12:10:34.605Z,12.72
2023-12-24T12:15:37.444Z,12.81
2023-12-24T12:20:42.454Z,12.72
2023-12-24T12:25:45.920Z,12.94
2023-12-24T12:30:48.649Z,12.85
2023-12-24T12:35:53.182Z,12.85
2023-12-24T12:41:01.777Z,12.78
2023-12-24T12:46:07.287Z,12.78
2023-12-24T12:51:11.567Z,12.72
2023-12-24T12:56:15.269Z,12.28
2023-12-24T13:01:18.213Z,12.69
2023-12-24T13:06:23.043Z,13.04
2023-12-24T13:11:25.831Z,12.97
2023-12-24T13:16:28.486Z,12.79
2023-12-24T13:21:32.497Z,13.13
2023-12-24T13:26:35.884Z,13.12
2023-12-24T13:31:41.633Z,12.93
2023-12-24T13:36:45.781Z,13.00
2023-12-24T13:41:48.657Z,13.16
2023-12-24T13:46:51.285Z,12.88
2023-12-24T13:51:57.458Z,13.11
2023-12-24T13:57:00.247Z,13.19
2023-12-24T14:02:03.038Z,13.05
2023-12-24T14:07:08.934Z,12.94
2023-12-24T14:12:15.580Z,13.13
2023-12-24T14:17:21.454Z,13.08
2023-12-24T14:22:28.481Z,13.39
2023-12-24T14:27:32.741Z,13.40
2023-12-24T14:32:37.230Z,13.26
2023-12-24T14:37:41.353Z,13.05
2023-12-24T14:42:44.329Z,13.29
2023-12-24T14:47:47.319Z,12.91
2023-12-24T14:52:51.995Z,13.37
2023-12-24T14:57:55.584Z,13.58
2023-12-24T15:02:58.321Z,13.52
2023-12-24T15:08:02.445Z,13.54
2023-12-24T15:13:05.435Z,13.69
2023-12-24T15:18:08.674Z,13.85
2023-12-24T15:23:12.909Z,13.55
2023-12-24T15:28:16.604Z,13.93
2023-12-24T15:33:21.873Z,14.10
2023-12-24T15:38:26.167Z,13.95
2023-12-24T15:43:29.080Z,14.08
2023-12-24T15:48:31.991Z,13.92
2023-12-24T15:53:36.248Z,13.91
2023-12-24T15:58:38.957Z,13.85
2023-12-24T16:03:42.090Z,13.89
2023-12-24T16:08:46.387Z,14.72
2023-12-24T16:13:50.086Z,14.05
2023-12-24T16:18:53.109Z,14.04
2023-12-24T16:23:57.123Z,13.60
2023-12-24T16:28:59.798Z,15.33
2023-12-24T16:34:02.643Z,14.82
2023-12-24T16:39:07.196Z,14.82
2023-12-24T16:44:10.356Z,13.91
2023-12-24T16:49:16.301Z,14.38
2023-12-24T16:54:21.543Z,15.42
2023-12-24T16:59:42.859Z,15.09
2023-12-24T17:05:06.587Z,14.83
2023-12-24T17:10:30.933Z,15.05
2023-12-24T17:15:53.921Z,14.49
2023-12-24T17:21:17.081Z,14.49
2023-12-24T17:26:42.368Z,15.07
2023-12-24T17:32:06.487Z,15.32
2023-12-24T17:37:29.535Z,14.86
2023-12-24T17:42:53.968Z,15.09
2023-12-24T17:48:20.321Z,14.93
2023-12-24T17:53:45.667Z,14.51
2023-12-24T17:59:10.311Z,15.14
2023-12-24T18:04:33.250Z,15.04
2023-12-24T18:09:56.366Z,14.88
2023-12-24T18:15:20.752Z,15.12
2023-12-24T18:20:43.959Z,14.88
2023-12-24T18:26:13.941Z,15.05
2023-12-24T18:31:42.783Z,14.93
2023-12-24T18:37:06.198Z,15.00
2023-12-24T18:42:30.895Z,15.23
2023-12-24T18:47:55.433Z,15.07
2023-12-24T18:53:18.452Z,15.09
2023-12-24T18:58:41.535Z,14.82
2023-12-24T19:04:05.890Z,14.83
2023-12-24T19:09:29.026Z,14.92
2023-12-24T19:14:52.035Z,14.88
2023-12-24T19:20:16.774Z,14.64
2023-12-24T19:25:39.821Z,14.78
2023-12-24T19:31:03.013Z,15.22
2023-12-24T19:36:27.483Z,15.28
2023-12-24T19:41:50.556Z,15.20
2023-12-24T19:47:15.131Z,14.84
2023-12-24T19:52:46.083Z,14.47
2023-12-24T19:58:09.916Z,14.54
2023-12-24T20:03:33.140Z,14.46
2023-12-24T20:08:57.533Z,13.99
2023-12-24T20:14:20.755Z,14.49
2023-12-24T20:19:43.960Z,14.27
2023-12-24T20:25:09.162Z,14.54
2023-12-24T20:30:32.294Z,14.63
2023-12-24T20:35:55.386Z,14.71
2023-12-24T20:41:19.897Z,14.68
2023-12-24T20:46:46.447Z,14.32
2023-12-24T20:52:10.290Z,14.71
2023-12-24T20:57:35.930Z,15.03
2023-12-24T21:03:01.588Z,14.57
2023-12-24T21:08:25.106Z,14.54
2023-12-24T21:13:52.141Z,14.36
2023-12-24T21:19:15.345Z,14.31
2023-12-24T21:24:39.167Z,14.06
2023-12-24T21:30:03.519Z,14.36
2023-12-24T21:35:26.685Z,14.31
2023-12-24T21:40:50.885Z,14.39
2023-12-24T21:46:24.423Z,13.89
2023-12-24T21:51:50.691Z,14.47
2023-12-24T21:57:14.994Z,14.27
2023-12-24T22:02:40.162Z,14.70
2023-12-24T22:08:04.296Z,14.41
2023-12-24T22:13:32.009Z,14.09
2023-12-24T22:18:57.001Z,13.63
2023-12-24T22:24:24.562Z,14.81
2023-12-24T22:29:49.285Z,14.90
2023-12-24T22:35:15.236Z,15.38
2023-12-24T22:40:38.940Z,14.66
2023-12-24T22:46:03.729Z,14.56
2023-12-24T22:51:28.031Z,14.61
2023-12-24T22:56:51.484Z,14.49
2023-12-24T23:02:14.522Z,14.98
2023-12-24T23:07:38.857Z,15.12
2023-12-24T23:13:02.172Z,14.64
2023-12-24T23:18:26.124Z,14.66
2023-12-24T23:23:52.528Z,14.23
2023-12-24T23:29:17.219Z,14.68
2023-12-24T23:34:44.039Z,14.68
2023-12-24T23:40:11.495Z,14.43
2023-12-24T23:45:35.739Z,14.04
2023-12-24T23:50:59.063Z,14.29
2023-12-24T23:56:23.752Z,14.39
